createdAt,value
2022-12-18T00:02:00.809Z,25.03
2022-12-18T00:07:03.954Z,34.17
2022-12-18T00:17:18.552Z,25.27
2022-12-18T00:22:21.374Z,20.60
2022-12-18T00:27:24.125Z,37.13
2022-12-18T05:34:24.870Z,30.07
2022-12-18T05:39:28.282Z,34.67
2022-12-18T05:44:31.679Z,37.00
2022-12-18T05:49:35.239Z,33.03
2022-12-18T05:54:38.636Z,38.30
2022-12-18T05:59:42.109Z,38.07
2022-12-18T06:04:45.485Z,46.27
2022-12-18T06:09:48.810Z,44.80
2022-12-18T06:14:52.187Z,45.17
2022-12-18T06:19:55.599Z,42.70
2022-12-18T06:24:58.887Z,62.47
2022-12-18T06:30:03.040Z,46.07
2022-12-18T06:35:07.080Z,46.83
2022-12-18T06:40:10.803Z,44.70
2022-12-18T06:45:14.197Z,47.57
2022-12-18T06:50:17.636Z,46.17
2022-12-18T06:55:21.100Z,40.90
2022-12-18T07:00:24.542Z,42.47
2022-12-18T07:05:27.946Z,50.20
2022-12-18T07:10:31.387Z,62.20
2022-12-18T07:15:34.790Z,57.30
2022-12-18T07:20:38.653Z,51.60
2022-12-18T07:25:42.051Z,42.37
2022-12-18T07:30:45.435Z,43.53
2022-12-18T07:35:48.849Z,56.93
2022-12-18T07:40:52.164Z,63.07
2022-12-18T07:45:55.750Z,61.10
2022-12-18T07:51:03.872Z,43.63
2022-12-18T07:56:27.709Z,69.73
2022-12-18T08:01:31.952Z,53.77
2022-12-18T08:06:35.371Z,54.90
2022-12-18T08:11:38.795Z,52.60
2022-12-18T08:16:42.088Z,59.40
2022-12-18T08:21:45.568Z,67.10
2022-12-18T08:27:06.644Z,56.77
2022-12-18T08:32:12.535Z,55.00
2022-12-18T08:37:15.858Z,65.97
2022-12-18T08:42:37.483Z,58.27
2022-12-18T08:47:40.890Z,51.27
2022-12-18T08:52:44.373Z,48.50
2022-12-18T08:57:50.816Z,50.13
2022-12-18T09:02:54.392Z,61.83
2022-12-18T09:07:57.901Z,56.63
2022-12-18T09:13:01.293Z,44.60
2022-12-18T09:18:04.779Z,49.10
2022-12-18T09:23:08.638Z,56.07
2022-12-18T09:28:14.598Z,43.47
2022-12-18T09:33:18.483Z,43.07
2022-12-18T09:38:24.227Z,43.23
2022-12-18T09:43:42.565Z,38.63
2022-12-18T09:48:52.096Z,37.03
2022-12-18T09:54:08.162Z,44.23
2022-12-18T09:59:25.674Z,38.63
2022-12-18T10:04:32.558Z,43.00
2022-12-18T10:09:57.562Z,39.20
2022-12-18T10:15:19.759Z,53.83
2022-12-18T10:20:43.037Z,50.53
2022-12-18T10:25:54.006Z,50.50
2022-12-18T10:30:57.548Z,38.43
2022-12-18T10:36:01.374Z,34.67
2022-12-18T10:41:07.586Z,50.80
2022-12-18T10:46:10.944Z,48.67
2022-12-18T10:51:22.450Z,42.70
2022-12-18T10:56:27.894Z,51.77
2022-12-18T11:01:48.228Z,40.57
2022-12-18T11:06:59.098Z,46.10
2022-12-18T11:12:07.277Z,40.50
2022-12-18T11:17:26.718Z,39.20
2022-12-18T11:22:37.641Z,38.10
2022-12-18T11:27:42.210Z,38.03
2022-12-18T11:32:48.586Z,32.63
2022-12-18T11:38:00.922Z,36.70
2022-12-18T11:43:53.596Z,33.67
2022-12-18T11:49:03.441Z,39.30
2022-12-18T11:54:25.096Z,46.40
2022-12-18T11:59:55.482Z,38.77
2022-12-18T12:05:11.462Z,51.23
2022-12-18T12:10:47.837Z,49.43
2022-12-18T12:15:56.936Z,40.43
2022-12-18T12:21:09.801Z,48.17
2022-12-18T12:26:18.094Z,50.20
2022-12-18T12:31:34.891Z,50.73
2022-12-18T12:37:05.598Z,44.83
2022-12-18T12:42:40.120Z,36.83
2022-12-18T12:47:45.796Z,42.53
2022-12-18T12:52:57.100Z,39.10
2022-12-18T12:58:43.403Z,44.10
2022-12-18T13:04:05.184Z,42.63
2022-12-18T13:09:08.600Z,31.07
2022-12-18T13:14:30.173Z,28.73
2022-12-18T13:19:33.856Z,25.80
2022-12-18T13:24:37.564Z,28.37
2022-12-18T13:29:46.254Z,29.07
2022-12-18T13:34:50.723Z,33.97
2022-12-18T13:39:54.386Z,33.40
2022-12-18T13:44:57.889Z,40.37
2022-12-18T13:50:03.505Z,33.50
2022-12-18T13:55:15.540Z,39.97
2022-12-18T14:00:27.389Z,33.73
2022-12-18T14:05:34.494Z,30.70
2022-12-18T14:10:49.160Z,35.07
2022-12-18T14:15:54.492Z,46.57
2022-12-18T14:21:04.358Z,40.10
2022-12-18T14:26:30.287Z,46.80
2022-12-18T14:31:34.048Z,45.30
2022-12-18T14:36:37.546Z,35.47
2022-12-18T14:41:41.532Z,35.30
2022-12-18T14:46:46.966Z,42.07
2022-12-18T14:51:56.338Z,38.73
2022-12-18T14:57:07.336Z,38.43
2022-12-18T15:02:37.292Z,38.23
2022-12-18T15:07:48.840Z,43.00
2022-12-18T15:12:59.041Z,48.07
2022-12-18T15:18:02.939Z,41.03
2022-12-18T15:23:06.518Z,40.50
2022-12-18T15:28:19.707Z,48.73
2022-12-18T15:33:28.958Z,48.50
2022-12-18T15:38:33.096Z,54.40
2022-12-18T15:43:40.198Z,53.73
2022-12-18T15:48:48.756Z,72.67
2022-12-18T15:53:54.795Z,72.27
2022-12-18T15:58:58.507Z,64.33
2022-12-18T16:04:02.215Z,56.67
2022-12-18T16:09:06.067Z,73.40
2022-12-18T16:14:27.845Z,65.67
2022-12-18T16:19:31.636Z,46.07
2022-12-18T16:24:37.385Z,51.67
2022-12-18T16:29:40.830Z,54.93
2022-12-18T16:34:44.911Z,60.77
2022-12-18T16:39:48.357Z,62.80
2022-12-18T16:44:51.864Z,62.47
2022-12-18T16:49:55.675Z,68.77
2022-12-18T16:54:59.180Z,87.87
2022-12-18T17:00:05.446Z,74.63
2022-12-18T17:05:09.705Z,75.03
2022-12-18T17:10:13.333Z,64.77
2022-12-18T17:15:16.864Z,68.77
2022-12-18T17:20:22.502Z,70.00
2022-12-18T17:25:26.133Z,66.43
2022-12-18T17:30:31.191Z,65.47
2022-12-18T17:35:34.829Z,68.53
2022-12-18T17:40:44.553Z,59.20
2022-12-18T17:45:57.564Z,60.00
2022-12-18T17:51:08.200Z,58.33
2022-12-18T17:56:15.247Z,63.23
2022-12-18T18:01:21.476Z,81.23
2022-12-18T18:06:25.215Z,85.93
2022-12-18T18:11:47.087Z,84.60
2022-12-18T18:16:52.677Z,84.27
2022-12-18T18:21:56.086Z,68.33
2022-12-18T18:27:00.283Z,91.10
2022-12-18T18:32:04.032Z,67.43
2022-12-18T18:37:07.431Z,66.07
2022-12-18T18:42:11.185Z,63.57
2022-12-18T18:47:14.669Z,60.53
2022-12-18T18:52:18.116Z,59.67
2022-12-18T18:57:24.248Z,59.53
2022-12-18T19:02:29.884Z,69.93
2022-12-18T19:07:33.421Z,56.23
2022-12-18T19:12:55.175Z,70.23
2022-12-18T19:17:58.596Z,78.37
2022-12-18T19:23:02.047Z,57.07
2022-12-18T19:28:06.346Z,63.00
2022-12-18T19:33:41.808Z,72.70
2022-12-18T19:38:35.350Z,53.10
2022-12-18T19:43:39.467Z,57.50
2022-12-18T19:48:44.305Z,61.27
2022-12-18T19:53:48.101Z,69.03
2022-12-18T19:58:51.726Z,87.83
2022-12-18T20:03:56.841Z,66.33
2022-12-18T20:09:05.403Z,70.83
2022-12-18T20:14:09.170Z,52.77
2022-12-18T20:19:14.192Z,82.77
2022-12-18T20:24:18.251Z,61.93
2022-12-18T20:29:21.711Z,82.20
2022-12-18T20:34:24.772Z,81.60
2022-12-18T20:39:28.687Z,71.40
2022-12-18T20:44:34.316Z,66.17
2022-12-18T20:49:37.752Z,80.03
2022-12-18T20:54:42.977Z,80.17
2022-12-18T20:59:48.515Z,86.20
2022-12-18T21:04:52.111Z,60.90
2022-12-18T21:09:55.781Z,79.63
2022-12-18T21:15:00.123Z,71.23
2022-12-18T21:20:04.065Z,72.43
2022-12-18T21:25:08.144Z,52.27
2022-12-18T21:30:15.231Z,62.17
2022-12-18T21:35:18.752Z,80.60
2022-12-18T21:40:24.029Z,44.77
2022-12-18T21:45:27.550Z,72.67
2022-12-18T21:50:33.668Z,57.90
2022-12-18T21:55:37.133Z,53.77
2022-12-18T22:00:43.440Z,48.20
2022-12-18T22:05:56.198Z,60.47
2022-12-18T22:11:13.780Z,60.37
2022-12-18T22:16:17.886Z,51.43
2022-12-18T22:21:30.195Z,58.90
2022-12-18T22:26:40.126Z,70.87
2022-12-18T22:31:44.010Z,69.23
2022-12-18T22:36:48.808Z,71.23
2022-12-18T22:41:52.870Z,75.57
2022-12-18T22:47:06.327Z,57.90
2022-12-18T22:52:10.691Z,52.27
2022-12-18T22:57:14.115Z,51.13
2022-12-18T23:02:19.001Z,41.60
2022-12-18T23:07:22.761Z,35.03
2022-12-18T23:12:26.088Z,49.73
2022-12-18T23:17:30.106Z,62.17
2022-12-18T23:22:33.554Z,65.93
2022-12-18T23:27:36.994Z,47.13
2022-12-18T23:32:40.446Z,45.97
2022-12-18T23:38:00.661Z,55.80
2022-12-18T23:43:04.308Z,58.07
2022-12-18T23:48:07.696Z,63.40
2022-12-18T23:53:11.448Z,60.83
2022-12-18T23:58:20.565Z,47.37
